Time;durP1;ratioP1;P1;durP2;ratioP2;P2;SDS_P1;SDS_P2;PMS_P1;PMS_P2;Temp;Humidity;BMP_temperature;BMP_pressure;BME280_temperature;BME280_humidity;BME280_pressure;Samples;Min_cycle;Max_cycle;Signal;HPM_P1;HPM_P2
2023/11/03 07:06:03;;;;;;;;;;;;;;;5.65;100.00;99922.91;1790237;79;20123;-65
2023/11/03 07:08:30;;;;;;;;;;;;;;;5.82;100.00;99922.72;1800898;79;20434;-67
2023/11/03 07:10:58;;;;;;;;;;;;;;;5.99;100.00;99917.79;1792386;79;20157;-67
2023/11/03 07:13:28;;;;;;;;;;;;;;;6.18;100.00;99916.59;1803626;79;20130;-67
2023/11/03 07:15:55;;;;;;;;;;;;;;;6.36;100.00;99917.16;1796319;79;20467;-69
2023/11/03 07:18:22;;;;;;;;;;;;;;;6.56;100.00;99915.86;1797626;79;20191;-66
2023/11/03 07:20:56;;;;;;;;;;;;;;;6.77;100.00;99914.59;1761345;79;20139;-71
2023/11/03 07:23:22;;;;;;;;;;;;;;;7.03;100.00;99913.00;1797562;79;20118;-70
2023/11/03 07:33:32;;;;;;;;;;;;;;;7.90;100.00;99885.25;1752139;81;20418;-69
2023/11/03 07:36:05;;;;;;;;;;;;;;;8.11;100.00;99894.20;1789871;79;20156;-70
2023/11/03 07:38:37;;;;;;;;;;;;;;;8.23;100.00;99899.64;1788583;79;20116;-67
2023/11/03 07:41:08;;;;;;;;;;;;;;;8.43;100.00;99901.27;1794835;79;20095;-72
2023/11/03 07:43:39;;;;;;;;;;;;;;;8.63;100.00;99897.24;1792722;79;20146;-68
2023/11/03 07:46:09;;;;;;;;;;;;;;;8.82;100.00;99894.53;1739852;80;20202;-68
2023/11/03 08:13:59;;;;;;;;;;;;;;;10.53;100.00;99908.61;1819403;78;20109;-68
2023/11/03 08:16:30;;;;;;;;;;;;;;;10.66;100.00;99914.79;1815730;78;20126;-67
2023/11/03 08:19:04;;;;;;;;;;;;;;;10.77;100.00;99908.50;1815165;78;20375;-69
2023/11/03 08:21:31;;;;;;;;;;;;;;;10.86;100.00;99916.20;1813014;78;20238;-72
2023/11/03 08:23:58;;;;;;;;;;;;;;;10.94;100.00;99916.59;1829899;78;20106;-67
2023/11/03 08:26:51;;;;;;;;;;;;;;;10.98;100.00;99920.70;1846042;77;20094;-69
2023/11/03 08:29:21;;;;;;;;;;;;;;;10.99;100.00;99919.30;1779673;78;20451;-66
2023/11/03 08:31:48;;;;;;;;;;;;;;;10.97;100.00;99914.65;1807051;79;20092;-67
2023/11/03 08:45:14;;;;;;;;;;;;;;;10.76;100.00;99916.40;1710728;82;20220;-68
2023/11/03 08:47:46;;;;;;;;;;;;;;;10.67;100.00;99918.61;1719880;82;20474;-73
2023/11/03 09:00:56;;;;;;;;;;;;;;;10.29;100.00;99905.20;1719219;83;20184;-66
2023/11/03 09:03:23;;;;;;;;;;;;;;;10.25;100.00;99894.59;1720214;83;20142;-68
2023/11/03 09:05:49;;;;;;;;;;;;;;;10.24;100.00;99897.27;1723704;82;20087;-66
2023/11/03 09:08:20;;;;;;;;;;;;;;;10.23;100.00;99893.83;1799473;78;20101;-72
2023/11/03 09:18:14;;;;;;;;;;;;;;;10.13;100.00;99884.83;1752616;78;20168;-70
2023/11/03 09:21:25;;;;;;;;;;;;;;;10.08;100.00;99879.52;1807643;78;20121;-69
2023/11/03 09:27:19;;;;;;;;;;;;;;;10.23;100.00;99889.09;1774575;78;20152;-68
2023/11/03 09:29:49;;;;;;;;;;;;;;;10.30;100.00;99878.25;1829507;78;20417;-69
2023/11/03 09:32:16;;;;;;;;;;;;;;;10.40;100.00;99874.62;1805096;78;20162;-69
2023/11/03 09:34:50;;;;;;;;;;;;;;;10.48;100.00;99874.19;1819531;78;20119;-69
2023/11/03 09:56:48;;;;;;;;;;;;;;;10.12;100.00;99853.70;1819527;78;20410;-74
2023/11/03 09:59:12;;;;;;;;;;;;;;;10.09;100.00;99859.08;1817622;78;20133;-65
2023/11/03 10:02:19;;;;;;;;;;;;;;;10.07;100.00;99852.66;1816700;78;20293;-70
2023/11/03 10:04:46;;;;;;;;;;;;;;;10.06;100.00;99842.34;1755232;79;20155;-67
2023/11/03 10:07:17;;;;;;;;;;;;;;;10.04;100.00;99830.25;1766118;80;20626;-66
2023/11/03 10:10:01;;;;;;;;;;;;;;;10.09;100.00;99837.80;1770543;80;20140;-68
2023/11/03 10:13:05;;;;;;;;;;;;;;;10.13;100.00;99831.50;1771921;79;20150;-67
2023/11/03 10:24:03;;;;;;;;;;;;;;;10.29;100.00;99814.58;1753094;80;20095;-65
2023/11/03 10:26:38;;;;;;;;;;;;;;;10.31;100.00;99822.67;1779625;80;20096;-67
2023/11/03 10:41:58;;;;;;;;;;;;;;;10.46;100.00;99787.08;1740175;82;20162;-66
2023/11/03 10:44:25;;;;;;;;;;;;;;;10.50;100.00;99779.92;1760050;80;20406;-66
2023/11/03 10:46:53;;;;;;;;;;;;;;;10.52;100.00;99784.11;1764439;80;20165;-64
2023/11/03 10:49:48;;;;;;;;;;;;;;;;;;;;;
2023/11/03 10:52:28;;;;;;;;;;;;;;;10.59;100.00;99780.21;1767556;80;20112;-66
2023/11/03 12:04:39;;;;;;;;;;;;;;;10.75;100.00;99759.30;1739070;82;20174;-66
2023/11/03 12:07:06;;;;;;;;;;;;;;;10.75;100.00;99754.55;1740345;82;20108;-71
2023/11/03 12:09:36;;;;;;;;;;;;;;;10.74;100.00;99751.11;1781495;80;20124;-67
2023/11/03 12:12:03;;;;;;;;;;;;;;;10.75;100.00;99762.37;1785688;80;20155;-70
2023/11/03 12:14:30;;;;;;;;;;;;;;;10.73;100.00;99755.95;1771116;80;20452;-76
2023/11/03 12:16:57;;;;;;;;;;;;;;;10.72;100.00;99750.37;1768323;80;20549;-70
2023/11/03 12:19:24;;;;;;;;;;;;;;;10.71;100.00;99747.86;1741318;82;20123;-70
2023/11/03 12:21:51;;;;;;;;;;;;;;;10.67;100.00;99739.39;1770658;80;20102;-69
2023/11/03 12:29:37;;;;;;;;;;;;;;;10.61;100.00;99732.79;1765422;81;20401;-69
2023/11/03 12:32:05;;;;;;;;;;;;;;;10.61;100.00;99724.14;1756455;81;20141;-71
2023/11/03 12:34:31;;;;;;;;;;;;;;;10.60;100.00;99723.77;1719745;82;20129;-72
2023/11/03 12:36:58;;;;;;;;;;;;;;;10.58;100.00;99713.45;1729622;81;20098;-69
2023/11/03 12:39:26;;;;;;;;;;;;;;;10.58;100.00;99717.35;1740227;82;20397;-70
2023/11/03 12:42:06;;;;;;;;;;;;;;;10.57;100.00;99711.77;1750069;81;20167;-75
2023/11/03 12:45:05;;;;;;;;;;;;;;;10.56;100.00;99702.29;1726483;82;20127;-70
2023/11/03 12:47:57;;;;;;;;;;;;;;;10.54;100.00;99699.41;1688030;82;20158;-75
2023/11/03 12:50:28;;;;;;;;;;;;;;;10.53;100.00;99702.47;1745894;81;20178;-71
2023/11/03 13:28:26;;;;;;;;;;;;;;;10.32;100.00;99668.20;1750839;80;20457;-69
2023/11/03 13:30:56;;;;;;;;;;;;;;;10.30;100.00;99656.20;1754206;82;20161;-72
2023/11/03 13:33:22;;;;;;;;;;;;;;;10.26;100.00;99653.41;1743082;81;20156;-67
2023/11/03 13:35:49;;;;;;;;;;;;;;;10.23;100.00;99647.93;1754957;81;20095;-70
2023/11/03 13:38:15;;;;;;;;;;;;;;;10.21;100.00;99653.69;1747247;81;20102;-65
2023/11/03 13:40:44;;;;;;;;;;;;;;;10.19;100.00;99641.67;1782669;80;20122;-73
2023/11/03 13:43:12;;;;;;;;;;;;;;;10.15;100.00;99634.52;1759778;80;20466;-72
2023/11/03 13:45:40;;;;;;;;;;;;;;;10.12;100.00;99645.11;1763937;80;20094;-70
2023/11/03 13:48:07;;;;;;;;;;;;;;;10.07;100.00;99630.70;1770460;80;20443;-70
2023/11/03 13:50:35;;;;;;;;;;;;;;;10.02;100.00;99630.51;1762167;80;20416;-75
2023/11/03 13:53:04;;;;;;;;;;;;;;;9.97;100.00;99629.14;1757899;81;20186;-72
2023/11/03 14:05:42;;;;;;;;;;;;;;;9.75;100.00;99643.87;1774511;80;20127;-70
2023/11/03 14:10:44;;;;;;;;;;;;;;;9.63;100.00;99643.27;1772914;81;20168;-64
2023/11/03 14:13:29;;;;;;;;;;;;;;;9.54;100.00;99632.98;1758808;80;20189;-70
2023/11/03 14:16:05;;;;;;;;;;;;;;;9.50;100.00;99635.84;1759682;82;20122;-67
2023/11/03 14:18:31;;;;;;;;;;;;;;;9.42;100.00;99628.95;1753100;80;20146;-70
2023/11/03 14:21:10;;;;;;;;;;;;;;;9.34;100.00;99625.02;1755746;81;20122;-67
2023/11/03 14:23:37;;;;;;;;;;;;;;;9.29;100.00;99623.14;1763953;80;20428;-65
2023/11/03 14:26:05;;;;;;;;;;;;;;;9.20;100.00;99621.07;1777674;80;20106;-66
2023/11/03 14:28:34;;;;;;;;;;;;;;;9.14;100.00;99612.35;1736904;82;20126;-71
2023/11/03 14:31:43;;;;;;;;;;;;;;;;;;;;;
2023/11/03 14:57:22;;;;;;;;;;;;;;;8.46;100.00;99635.16;1741297;82;20187;-68
2023/11/03 14:59:49;;;;;;;;;;;;;;;8.41;100.00;99637.63;1745951;82;20493;-68
2023/11/03 15:02:18;;;;;;;;;;;;;;;8.35;100.00;99638.36;1725837;82;20139;-69
